Terminal Aerodrome Forecast
Issued by NWS

Home | Current Version | Previous Version | Text Only | Print | Product List | Glossary Off
Versions: 1 2 3 4 5 6 7 8 9 10 11 12 13 14 15 16

000
FTUS43 KBIS 191720
TAFJMS
TAF
KJMS 191720Z 1918/2018 21012KT P6SM SKC
     FM192300 18007KT P6SM SKC
     FM200600 17010KT P6SM SKC WS020/21030KT
     FM201400 17017G27KT P6SM SKC=

USA.gov is the U.S. government's official web portal to all federal, state and local government web resources and services.